South International Falls, Minnesota
Current Conditions -  °F | °C
As of 9:55 PM on Thursday 18 Dec 2014 (Local Time) from KINL Reporting Station
Overcast Overcast  
Wind Chill: 13°   Ceiling: 1600
Heat Index: 20°   Visibility: 10mi
Dew Point: 17°   Wind: 5mph
Humidity: 89%   Direction: 130°SE
Pressure: 30.19"   Gusts: NA
Location:  48.59°N, 93.4°W
Report Text: KINL 190355Z AUTO 13004KT 10SM OVC016 M07/M08 A3019 RMK AO2 SLP251 T10671083
Loading
Personal Weather Stations






























Interactive Weather Map New forecast layout! Learn more

10-Day Weather Forecast

Advertisements
Track Severe Weather on mobile